createdAt,value
2023-08-25T00:02:00.219Z,94465.63
2023-08-25T00:04:26.801Z,94452.91
2023-08-25T00:06:53.247Z,94448.56
2023-08-25T00:09:19.709Z,94449.88
2023-08-25T00:11:46.158Z,94459.09
2023-08-25T00:14:12.605Z,94447.75
2023-08-25T00:16:39.069Z,94447.72
2023-08-25T00:19:05.534Z,94443.41
2023-08-25T00:21:31.983Z,94439.31
2023-08-25T00:23:58.428Z,94447.19
2023-08-25T00:26:24.878Z,94444.22
2023-08-25T00:28:51.329Z,94434.47
2023-08-25T00:31:17.845Z,94436.06
2023-08-25T00:33:44.322Z,94428.78
2023-08-25T00:36:10.812Z,94426.63
2023-08-25T00:38:37.316Z,94418.50
2023-08-25T00:41:03.788Z,94426.63
2023-08-25T00:43:30.250Z,94420.41
2023-08-25T00:45:56.749Z,94422.81
2023-08-25T00:48:23.208Z,94417.97
2023-08-25T00:50:49.649Z,94417.16
2023-08-25T00:53:16.112Z,94417.97
2023-08-25T00:55:42.567Z,94424.72
2023-08-25T00:58:09.106Z,94415.25
2023-08-25T01:00:35.596Z,94407.41
2023-08-25T01:03:02.160Z,94408.50
2023-08-25T01:05:28.706Z,94411.47
2023-08-25T01:07:55.409Z,94407.41
2023-08-25T01:10:22.038Z,94412.81
2023-08-25T01:12:48.491Z,94407.41
2023-08-25T01:15:14.999Z,94409.56
2023-08-25T01:17:41.465Z,94400.59
2023-08-25T01:20:07.986Z,94397.34
2023-08-25T01:22:34.491Z,94391.91
2023-08-25T01:25:00.993Z,94394.34
2023-08-25T01:27:27.425Z,94401.66
2023-08-25T01:29:53.911Z,94399.75
2023-08-25T01:32:20.350Z,94402.69
2023-08-25T01:34:46.794Z,94404.84
2023-08-25T01:37:13.287Z,94404.31
2023-08-25T01:39:39.726Z,94396.47
2023-08-25T01:42:06.170Z,94402.13
2023-08-25T01:44:32.638Z,94396.44
2023-08-25T01:46:59.080Z,94397.78
2023-08-25T01:49:25.549Z,94390.50
2023-08-25T01:51:51.995Z,94391.56
2023-08-25T01:54:18.470Z,94387.78
2023-08-25T01:56:44.926Z,94372.97
2023-08-25T01:59:11.395Z,94380.25
2023-08-25T02:01:38.008Z,94373.78
2023-08-25T02:04:04.552Z,94373.75
2023-08-25T02:06:31.001Z,94374.28
2023-08-25T02:08:57.472Z,94378.59
2023-08-25T02:11:23.960Z,94377.78
2023-08-25T02:13:50.442Z,94374.84
2023-08-25T02:16:16.926Z,94375.09
2023-08-25T02:18:43.413Z,94365.09
2023-08-25T02:21:09.891Z,94368.81
2023-08-25T02:23:36.337Z,94367.16
2023-08-25T02:26:02.812Z,94367.13
2023-08-25T02:28:29.255Z,94374.94
2023-08-25T02:30:55.754Z,94370.59
2023-08-25T02:33:22.223Z,94359.78
2023-08-25T02:35:48.771Z,94357.06
2023-08-25T02:38:15.238Z,94355.16
2023-08-25T02:40:41.705Z,94353.00
2023-08-25T02:43:08.197Z,94357.59
2023-08-25T02:45:34.661Z,94353.53
2023-08-25T02:48:01.158Z,94353.28
2023-08-25T02:50:27.621Z,94350.31
2023-08-25T02:52:54.070Z,94355.16
2023-08-25T02:55:20.550Z,94350.31
2023-08-25T02:57:47.002Z,94359.16
2023-08-25T03:00:13.455Z,94354.06
2023-08-25T03:02:40.003Z,94348.34
2023-08-25T03:05:06.518Z,94347.53
2023-08-25T03:07:32.969Z,94343.22
2023-08-25T03:09:59.419Z,94340.81
2023-08-25T03:12:25.881Z,94342.69
2023-08-25T03:14:52.338Z,94345.41
2023-08-25T03:17:18.789Z,94334.88
2023-08-25T03:19:45.250Z,94333.53
2023-08-25T03:22:11.773Z,94325.94
2023-08-25T03:24:38.207Z,94333.53
2023-08-25T03:27:04.683Z,94335.41
2023-08-25T03:29:31.120Z,94333.53
2023-08-25T03:31:57.571Z,94334.28
2023-08-25T03:34:24.026Z,94325.66
2023-08-25T03:36:50.523Z,94324.84
2023-08-25T03:39:17.010Z,94337.50
2023-08-25T03:41:43.473Z,94329.63
2023-08-25T03:44:09.919Z,94338.78
2023-08-25T03:46:36.399Z,94336.09
2023-08-25T03:49:02.864Z,94330.69
2023-08-25T03:51:29.305Z,94334.78
2023-08-25T03:53:55.750Z,94331.28
2023-08-25T03:56:22.235Z,94325.09
2023-08-25T03:58:48.694Z,94333.50
2023-08-25T04:01:15.153Z,94330.25
2023-08-25T04:03:41.661Z,94333.72
2023-08-25T04:06:08.126Z,94329.06
2023-08-25T04:08:34.562Z,94323.69
2023-08-25T04:11:01.044Z,94323.41
2023-08-25T04:13:27.544Z,94330.63
2023-08-25T04:15:53.992Z,94331.50
2023-08-25T04:18:20.441Z,94327.75
2023-08-25T04:20:46.939Z,94321.81
2023-08-25T04:23:13.436Z,94311.53
2023-08-25T04:25:39.909Z,94317.94
2023-08-25T04:28:06.395Z,94322.91
2023-08-25T04:30:32.837Z,94321.53
2023-08-25T04:32:59.345Z,94313.19
2023-08-25T04:35:25.827Z,94317.78
2023-08-25T04:37:52.737Z,94318.06
2023-08-25T04:40:19.605Z,94312.69
2023-08-25T04:42:46.076Z,94323.22
2023-08-25T04:45:12.510Z,94323.47
2023-08-25T04:47:38.948Z,94318.06
2023-08-25T04:50:05.470Z,94329.41
2023-08-25T04:52:31.934Z,94333.16
2023-08-25T04:54:58.426Z,94341.00
2023-08-25T04:57:24.885Z,94336.13
2023-08-25T04:59:51.326Z,94344.78
2023-08-25T05:02:17.791Z,94344.81
2023-08-25T05:04:44.273Z,94352.13
2023-08-25T05:07:10.739Z,94354.56
2023-08-25T05:09:37.190Z,94355.38
2023-08-25T05:12:03.775Z,94354.06
2023-08-25T05:14:30.256Z,94367.81
2023-08-25T05:16:56.769Z,94416.41
2023-08-25T05:19:23.382Z,94444.44
2023-08-25T05:21:49.864Z,94438.25
2023-08-25T05:24:16.304Z,94439.91
2023-08-25T05:26:42.829Z,94422.66
2023-08-25T05:29:09.293Z,94430.53
2023-08-25T05:31:35.760Z,94420.41
2023-08-25T05:34:02.286Z,94431.81
2023-08-25T05:36:28.784Z,94439.72
2023-08-25T05:38:55.209Z,94448.41
2023-08-25T05:41:21.695Z,94461.09
2023-08-25T05:43:50.155Z,94455.69
2023-08-25T05:46:16.693Z,94450.56
2023-08-25T05:48:43.170Z,94447.59
2023-08-25T05:51:09.604Z,94482.19
2023-08-25T05:53:36.240Z,94464.91
2023-08-25T05:56:02.679Z,94462.50
2023-08-25T05:58:29.149Z,94471.13
2023-08-25T06:00:55.615Z,94456.78
2023-08-25T06:03:22.092Z,94450.59
2023-08-25T06:05:48.542Z,94445.16
2023-08-25T06:08:15.019Z,94440.88
2023-08-25T06:10:41.504Z,94431.41
2023-08-25T06:13:07.950Z,94430.59
2023-08-25T06:15:34.408Z,94417.31
2023-08-25T06:18:00.925Z,94423.28
2023-08-25T06:20:27.381Z,94420.00
2023-08-25T06:22:53.820Z,94392.72
2023-08-25T06:25:20.285Z,94392.72
2023-08-25T06:27:46.768Z,94389.22
2023-08-25T06:30:13.220Z,94370.84
2023-08-25T06:32:39.736Z,94360.09
2023-08-25T06:35:06.212Z,94377.94
2023-08-25T06:37:32.681Z,94410.66
2023-08-25T06:39:59.133Z,94425.00
2023-08-25T06:42:25.579Z,94423.38
2023-08-25T06:44:52.046Z,94419.84
2023-08-25T06:47:18.504Z,94406.88
2023-08-25T06:49:44.936Z,94397.41
2023-08-25T06:52:11.413Z,94431.78
2023-08-25T06:54:37.862Z,94434.19
2023-08-25T06:57:04.325Z,94422.59
2023-08-25T06:59:30.772Z,94437.97
2023-08-25T07:01:57.234Z,94413.59
2023-08-25T07:04:23.716Z,94418.97
2023-08-25T07:06:50.190Z,94428.69
2023-08-25T07:09:16.645Z,94453.31
2023-08-25T07:11:43.113Z,94455.22
2023-08-25T07:14:09.599Z,94450.34
2023-08-25T07:16:36.065Z,94467.13
2023-08-25T07:19:02.690Z,94460.91
2023-08-25T07:21:29.136Z,94457.16
2023-08-25T07:23:55.613Z,94458.00
2023-08-25T07:26:22.065Z,94469.38
2023-08-25T07:28:48.511Z,94467.50
2023-08-25T07:31:15.026Z,94468.31
2023-08-25T07:33:41.523Z,94472.94
2023-08-25T07:36:07.967Z,94475.88
2023-08-25T07:38:34.428Z,94477.78
2023-08-25T07:41:00.862Z,94474.25
2023-08-25T07:43:27.358Z,94484.25
2023-08-25T07:45:53.836Z,94498.34
2023-08-25T07:48:20.328Z,94519.75
2023-08-25T07:50:46.794Z,94512.97
2023-08-25T07:53:13.255Z,94528.13
2023-08-25T07:55:39.706Z,94537.59
2023-08-25T07:58:06.178Z,94558.69
2023-08-25T08:00:32.653Z,94548.06
2023-08-25T08:02:59.171Z,94554.50
2023-08-25T08:05:25.697Z,94562.50
2023-08-25T08:07:52.657Z,94554.78
2023-08-25T08:10:19.652Z,94552.81
2023-08-25T08:12:46.243Z,94549.44
2023-08-25T08:15:12.690Z,94564.09
2023-08-25T08:17:39.188Z,94584.69
2023-08-25T08:20:05.698Z,94610.72
2023-08-25T08:22:32.184Z,94627.06
2023-08-25T08:24:58.676Z,94635.50
2023-08-25T08:27:25.132Z,94630.34
2023-08-25T08:29:51.591Z,94637.09
2023-08-25T08:32:18.050Z,94656.91
2023-08-25T08:34:44.476Z,94656.91
2023-08-25T08:37:10.922Z,94664.22
2023-08-25T08:39:37.382Z,94657.41
2023-08-25T08:42:03.834Z,94660.69
2023-08-25T08:44:30.356Z,94675.38
2023-08-25T08:46:56.864Z,94675.38
2023-08-25T08:49:23.370Z,94687.25
2023-08-25T08:51:49.834Z,94679.72
2023-08-25T08:54:16.987Z,94694.91
2023-08-25T08:56:43.528Z,94693.53
2023-08-25T08:59:10.011Z,94700.59
2023-08-25T09:01:36.458Z,94700.41
2023-08-25T09:04:02.972Z,94700.53
2023-08-25T09:06:29.479Z,94682.69
2023-08-25T09:08:55.941Z,94705.50
2023-08-25T09:11:22.388Z,94704.19
2023-08-25T09:13:48.837Z,94714.50
2023-08-25T09:16:15.508Z,94730.22
2023-08-25T09:18:42.066Z,94727.50
2023-08-25T09:21:08.516Z,94729.44
2023-08-25T09:23:34.998Z,94732.66
2023-08-25T09:26:01.455Z,94741.91
2023-08-25T09:28:27.907Z,94734.28
2023-08-25T09:30:54.645Z,94714.78
2023-08-25T09:33:21.201Z,94716.41
2023-08-25T09:35:47.674Z,94709.38
2023-08-25T09:38:14.118Z,94731.50
2023-08-25T09:40:40.589Z,94728.97
2023-08-25T09:43:07.038Z,94731.47
2023-08-25T09:45:33.545Z,94725.72
2023-08-25T09:48:00.000Z,94720.00
2023-08-25T09:50:26.480Z,94718.13
2023-08-25T09:52:52.944Z,94725.13
2023-08-25T09:55:19.400Z,94723.75
2023-08-25T09:57:45.882Z,94704.69
2023-08-25T10:00:12.979Z,94687.97
2023-08-25T10:02:39.464Z,94682.59
2023-08-25T10:05:06.028Z,94672.00
2023-08-25T10:07:32.538Z,94689.06
2023-08-25T10:09:59.016Z,94704.25
2023-08-25T10:12:25.461Z,94686.63
2023-08-25T10:14:51.973Z,94690.72
2023-08-25T10:17:18.440Z,94699.66
2023-08-25T10:19:44.910Z,94699.59
2023-08-25T10:22:11.369Z,94667.38
2023-08-25T10:24:37.864Z,94673.47
2023-08-25T10:27:04.345Z,94663.47
2023-08-25T10:29:30.982Z,94657.72
2023-08-25T10:31:57.446Z,94648.31
2023-08-25T10:34:23.908Z,94641.63
2023-08-25T10:36:50.344Z,94664.09
2023-08-25T10:39:16.788Z,94670.38
2023-08-25T10:41:43.291Z,94674.00
2023-08-25T10:44:09.725Z,94668.91
2023-08-25T10:46:47.620Z,94662.44
2023-08-25T10:49:15.641Z,94667.59
2023-08-25T10:51:42.186Z,94658.94
2023-08-25T10:54:08.662Z,94645.66
2023-08-25T10:56:35.095Z,94634.03
2023-08-25T10:59:01.558Z,94632.38
2023-08-25T11:01:28.006Z,94627.47
2023-08-25T11:03:54.546Z,94606.59
2023-08-25T11:06:21.020Z,94566.16
2023-08-25T11:08:47.469Z,94561.56
2023-08-25T11:11:13.964Z,94556.13
2023-08-25T11:13:40.483Z,94569.41
2023-08-25T11:16:06.986Z,94552.84
2023-08-25T11:18:33.496Z,94555.03
2023-08-25T11:20:59.955Z,94549.88
2023-08-25T11:23:26.438Z,94558.25
2023-08-25T11:25:52.905Z,94569.06
2023-08-25T11:28:19.351Z,94572.53
2023-08-25T11:30:45.991Z,94570.06
2023-08-25T11:33:12.439Z,94582.81
2023-08-25T11:35:38.869Z,94570.28
2023-08-25T11:38:05.315Z,94577.88
2023-08-25T11:40:31.883Z,94573.84
2023-08-25T11:42:58.372Z,94566.28
2023-08-25T11:45:24.801Z,94573.88
2023-08-25T11:47:51.407Z,94577.69
2023-08-25T11:50:17.908Z,94573.91
2023-08-25T11:52:44.372Z,94574.94
2023-08-25T11:55:10.829Z,94563.50
2023-08-25T11:57:37.269Z,94544.97
2023-08-25T12:00:03.748Z,94545.19
2023-08-25T12:02:30.266Z,94550.03
2023-08-25T12:04:59.618Z,94544.84
2023-08-25T12:07:26.683Z,94547.28
2023-08-25T12:09:53.120Z,94524.22
2023-08-25T12:12:19.592Z,94518.00
2023-08-25T12:14:46.036Z,94528.31
2023-08-25T12:17:12.476Z,94521.00
2023-08-25T12:19:38.960Z,94518.28
2023-08-25T12:22:05.402Z,94493.59
2023-08-25T12:24:31.890Z,94498.78
2023-08-25T12:26:58.342Z,94486.06
2023-08-25T12:29:24.839Z,94476.06
2023-08-25T12:31:51.318Z,94489.41
2023-08-25T12:34:17.754Z,94457.81
2023-08-25T12:36:44.221Z,94471.19
2023-08-25T12:39:10.645Z,94491.63
2023-08-25T12:41:37.116Z,94514.19
2023-08-25T12:44:03.566Z,94510.22
2023-08-25T12:46:30.156Z,94510.56
2023-08-25T12:48:56.675Z,94471.00
2023-08-25T12:51:23.144Z,94456.09
2023-08-25T12:53:50.701Z,94434.94
2023-08-25T12:56:17.313Z,94398.38
2023-08-25T12:58:44.896Z,94382.72
2023-08-25T13:01:11.453Z,94368.91
2023-08-25T13:03:38.141Z,94348.41
2023-08-25T13:06:05.079Z,94350.31
2023-08-25T13:08:32.241Z,94354.16
2023-08-25T13:10:58.833Z,94380.09
2023-08-25T13:13:26.419Z,94382.81
2023-08-25T13:15:53.066Z,94376.03
2023-08-25T13:18:20.631Z,94391.72
2023-08-25T13:20:49.910Z,94386.88
2023-08-25T13:23:34.199Z,94362.53
2023-08-25T13:26:05.447Z,94344.41
2023-08-25T13:28:32.052Z,94337.06
2023-08-25T13:30:58.512Z,94331.13
2023-08-25T13:33:25.225Z,94329.25
2023-08-25T13:35:51.816Z,94328.44
2023-08-25T13:38:19.536Z,94338.44
2023-08-25T13:40:47.010Z,94357.38
2023-08-25T13:43:13.591Z,94316.03
2023-08-25T13:45:40.054Z,94303.03
2023-08-25T13:48:06.527Z,94309.00
2023-08-25T13:50:32.957Z,94292.78
2023-08-25T13:52:59.489Z,94291.66
2023-08-25T13:55:26.543Z,94301.09
2023-08-25T13:57:53.681Z,94302.22
2023-08-25T14:00:20.852Z,94296.25
2023-08-25T14:02:47.552Z,94292.47
2023-08-25T14:05:14.900Z,94277.88
2023-08-25T14:07:41.348Z,94275.19
2023-08-25T14:10:09.078Z,94276.81
2023-08-25T14:12:35.701Z,94286.53
2023-08-25T14:15:02.302Z,94277.63
2023-08-25T14:17:28.816Z,94263.00
2023-08-25T14:19:55.477Z,94268.69
2023-08-25T14:22:21.935Z,94263.03
2023-08-25T14:24:48.661Z,94256.78
2023-08-25T14:27:15.252Z,94251.31
2023-08-25T14:29:41.833Z,94252.63
2023-08-25T14:32:08.314Z,94251.00
2023-08-25T14:34:34.998Z,94252.78
2023-08-25T14:37:01.576Z,94259.22
2023-08-25T14:39:29.187Z,94249.03
2023-08-25T14:41:56.835Z,94244.78
2023-08-25T14:44:23.438Z,94230.50
2023-08-25T14:46:49.923Z,94225.16
2023-08-25T14:49:16.393Z,94230.91
2023-08-25T14:51:42.921Z,94208.47
2023-08-25T14:54:09.402Z,94213.44
2023-08-25T14:56:35.945Z,94212.09
2023-08-25T14:59:02.428Z,94215.91
2023-08-25T15:01:29.641Z,94213.81
2023-08-25T15:03:57.192Z,94207.22
2023-08-25T15:06:23.664Z,94200.69
2023-08-25T15:08:50.124Z,94211.28
2023-08-25T15:11:16.955Z,94210.31
2023-08-25T15:13:43.561Z,94208.31
2023-08-25T15:16:10.049Z,94209.25
2023-08-25T15:18:36.825Z,94211.16
2023-08-25T15:21:04.313Z,94210.28
2023-08-25T15:23:30.893Z,94214.41
2023-08-25T15:25:57.627Z,94212.69
2023-08-25T15:28:25.100Z,94205.06
2023-08-25T15:30:51.655Z,94204.16
2023-08-25T15:33:18.169Z,94203.59
2023-08-25T15:35:44.608Z,94192.72
2023-08-25T15:38:11.453Z,94190.13
2023-08-25T15:40:37.924Z,94192.03
2023-08-25T15:43:04.367Z,94190.75
2023-08-25T15:45:30.939Z,94181.78
2023-08-25T15:47:57.738Z,94192.13
2023-08-25T15:50:24.387Z,94173.41
2023-08-25T15:52:51.048Z,94170.38
2023-08-25T15:55:17.529Z,94175.00
2023-08-25T15:57:45.222Z,94176.72
2023-08-25T16:00:11.677Z,94170.63
2023-08-25T16:02:38.429Z,94182.69
2023-08-25T16:05:06.055Z,94179.97
2023-08-25T16:07:33.574Z,94172.91
2023-08-25T16:10:00.026Z,94168.72
2023-08-25T16:12:26.764Z,94177.59
2023-08-25T16:14:53.202Z,94179.50
2023-08-25T16:17:19.941Z,94172.00
2023-08-25T16:19:46.413Z,94173.09
2023-08-25T16:22:14.145Z,94182.16
2023-08-25T16:24:40.624Z,94175.47
2023-08-25T16:27:07.312Z,94173.16
2023-08-25T16:29:33.888Z,94185.47
2023-08-25T16:32:02.505Z,94175.84
2023-08-25T16:34:30.059Z,94186.84
2023-08-25T16:36:56.524Z,94184.84
2023-08-25T16:39:24.556Z,94173.31
2023-08-25T16:41:51.106Z,94177.50
2023-08-25T16:44:17.625Z,94182.78
2023-08-25T16:46:44.181Z,94186.41
2023-08-25T16:49:10.742Z,94236.41
2023-08-25T16:51:37.241Z,94279.06
2023-08-25T16:54:03.849Z,94295.16
2023-08-25T16:56:30.366Z,94269.00
2023-08-25T16:58:57.020Z,94223.38
2023-08-25T17:01:23.510Z,94192.78
2023-08-25T17:03:49.994Z,94165.41
2023-08-25T17:06:16.476Z,94158.50
2023-08-25T17:08:42.949Z,94176.22
2023-08-25T17:11:09.434Z,94190.38
2023-08-25T17:13:35.913Z,94193.41
2023-08-25T17:16:02.435Z,94190.31
2023-08-25T17:18:28.959Z,94177.91
2023-08-25T17:20:55.505Z,94175.97
2023-08-25T17:23:21.991Z,94158.97
2023-08-25T17:25:48.432Z,94153.25
2023-08-25T17:28:14.899Z,94144.06
2023-08-25T17:30:41.403Z,94158.28
2023-08-25T17:33:07.959Z,94163.47
2023-08-25T17:35:34.434Z,94154.56
2023-08-25T17:38:00.874Z,94141.28
2023-08-25T17:40:27.348Z,94149.59
2023-08-25T17:42:54.014Z,94153.88
2023-08-25T17:45:20.613Z,94158.44
2023-08-25T17:47:47.140Z,94154.94
2023-08-25T17:50:13.608Z,94151.97
2023-08-25T17:52:40.068Z,94153.84
2023-08-25T17:55:06.667Z,94169.69
2023-08-25T17:57:33.148Z,94165.91
2023-08-25T17:59:59.625Z,94174.03
2023-08-25T18:04:52.675Z,94184.19
2023-08-25T18:07:19.151Z,94187.41
2023-08-25T18:09:45.613Z,94205.00
2023-08-25T18:12:12.124Z,94205.31
2023-08-25T18:14:38.648Z,94208.56
2023-08-25T18:17:05.118Z,94193.47
2023-08-25T18:19:31.577Z,94192.66
2023-08-25T18:21:58.037Z,94196.16
2023-08-25T18:24:24.511Z,94201.84
2023-08-25T18:26:50.967Z,94205.91
2023-08-25T18:29:17.402Z,94211.84
2023-08-25T18:31:43.880Z,94213.44
2023-08-25T18:34:10.354Z,94229.59
2023-08-25T18:36:36.800Z,94224.50
2023-08-25T18:39:03.289Z,94209.09
2023-08-25T18:41:29.740Z,94196.16
2023-08-25T18:43:56.208Z,94205.56
2023-08-25T18:46:22.729Z,94210.41
2023-08-25T18:48:49.186Z,94205.28
2023-08-25T18:51:15.622Z,94209.84
2023-08-25T18:53:42.092Z,94208.72
2023-08-25T18:56:08.589Z,94215.41
2023-08-25T18:58:35.066Z,94204.34
2023-08-25T19:01:01.535Z,94210.47
2023-08-25T19:03:28.071Z,94212.13
2023-08-25T19:05:54.525Z,94209.72
2023-08-25T19:08:20.990Z,94199.53
2023-08-25T19:10:47.455Z,94215.78
2023-08-25T19:13:13.909Z,94205.28
2023-08-25T19:15:40.468Z,94221.00
2023-08-25T19:18:07.063Z,94228.31
2023-08-25T19:20:33.523Z,94222.09
2023-08-25T19:23:00.010Z,94227.78
2023-08-25T19:25:26.497Z,94234.06
2023-08-25T19:27:52.952Z,94245.28
2023-08-25T19:30:19.414Z,94255.53
2023-08-25T19:32:45.881Z,94252.34
2023-08-25T19:35:12.359Z,94262.59
2023-08-25T19:37:38.825Z,94280.66
2023-08-25T19:40:05.730Z,94287.16
2023-08-25T19:42:32.205Z,94288.44
2023-08-25T19:44:58.677Z,94284.13
2023-08-25T19:47:25.196Z,94280.97
2023-08-25T19:49:51.739Z,94276.09
2023-08-25T19:52:18.183Z,94288.28
2023-08-25T19:54:44.666Z,94280.53
2023-08-25T19:57:11.146Z,94273.25
2023-08-25T19:59:37.677Z,94253.53
2023-08-25T20:02:04.167Z,94251.13
2023-08-25T20:04:30.633Z,94260.00
2023-08-25T20:06:57.074Z,94252.38
2023-08-25T20:09:23.523Z,94261.84
2023-08-25T20:11:49.979Z,94249.97
2023-08-25T20:14:16.487Z,94242.00
2023-08-25T20:16:42.992Z,94235.22
2023-08-25T20:19:09.542Z,94220.59
2023-08-25T20:21:36.034Z,94230.00
2023-08-25T20:24:02.491Z,94237.28
2023-08-25T20:26:28.945Z,94246.16
2023-08-25T20:28:55.393Z,94241.31
2023-08-25T20:31:21.869Z,94244.53
2023-08-25T20:33:48.368Z,94259.63
2023-08-25T20:36:16.854Z,94257.16
2023-08-25T20:38:45.192Z,94267.97
2023-08-25T20:41:11.792Z,94283.88
2023-08-25T20:43:41.102Z,94279.88
2023-08-25T20:46:08.251Z,94298.50
2023-08-25T20:48:34.731Z,94301.81
2023-08-25T20:51:03.075Z,94297.25
2023-08-25T20:53:31.727Z,94309.16
2023-08-25T20:55:58.232Z,94297.06
2023-08-25T20:58:24.738Z,94302.72
2023-08-25T21:00:51.197Z,94324.31
2023-08-25T21:03:17.795Z,94310.06
2023-08-25T21:05:44.348Z,94304.66
2023-08-25T21:08:10.790Z,94308.19
2023-08-25T21:10:37.261Z,94302.47
2023-08-25T21:13:03.711Z,94304.66
2023-08-25T21:15:30.189Z,94292.47
2023-08-25T21:17:56.706Z,94292.47
2023-08-25T21:20:24.795Z,94311.94
2023-08-25T21:22:53.549Z,94306.25
2023-08-25T21:25:20.353Z,94307.38
2023-08-25T21:27:46.811Z,94308.72
2023-08-25T21:30:13.244Z,94311.19
2023-08-25T21:32:39.720Z,94309.56
2023-08-25T21:35:06.181Z,94307.69
2023-08-25T21:37:32.661Z,94310.69
2023-08-25T21:39:59.099Z,94315.03
2023-08-25T21:42:25.584Z,94319.88
2023-08-25T21:44:52.044Z,94313.94
2023-08-25T21:47:18.509Z,94324.47
2023-08-25T21:49:44.977Z,94325.03
2023-08-25T21:52:11.450Z,94323.41
2023-08-25T21:54:37.928Z,94331.03
2023-08-25T21:57:04.371Z,94335.91
2023-08-25T21:59:30.820Z,94336.19
2023-08-25T22:01:57.299Z,94324.03
2023-08-25T22:04:23.755Z,94325.59
2023-08-25T22:06:50.235Z,94325.28
2023-08-25T22:09:16.681Z,94314.44
2023-08-25T22:11:43.127Z,94319.03
2023-08-25T22:14:09.585Z,94330.09
2023-08-25T22:16:36.062Z,94325.00
2023-08-25T22:19:02.508Z,94334.44
2023-08-25T22:21:29.012Z,94339.03
2023-08-25T22:23:55.470Z,94335.25
2023-08-25T22:26:21.939Z,94334.66
2023-08-25T22:28:48.395Z,94322.50
2023-08-25T22:31:14.858Z,94313.28
2023-08-25T22:36:10.659Z,94308.69
2023-08-25T22:38:37.266Z,94313.25
2023-08-25T22:41:03.725Z,94307.59
2023-08-25T22:43:30.207Z,94314.63
2023-08-25T22:45:56.737Z,94314.06
2023-08-25T22:48:23.233Z,94311.66
2023-08-25T22:50:49.683Z,94314.09
2023-08-25T22:53:16.155Z,94316.28
2023-08-25T22:55:42.737Z,94327.34
2023-08-25T22:58:09.364Z,94316.00
2023-08-25T23:00:35.864Z,94334.88
2023-08-25T23:03:02.396Z,94318.66
2023-08-25T23:05:28.929Z,94322.97
2023-08-25T23:07:55.573Z,94328.06
2023-08-25T23:10:22.213Z,94325.06
2023-08-25T23:12:48.668Z,94322.91
2023-08-25T23:15:15.114Z,94323.91
2023-08-25T23:17:41.656Z,94331.72
2023-08-25T23:20:08.142Z,94334.75
2023-08-25T23:22:34.593Z,94336.09
2023-08-25T23:25:01.056Z,94334.41
2023-08-25T23:27:27.529Z,94329.81
2023-08-25T23:29:54.002Z,94332.00
2023-08-25T23:32:20.448Z,94334.94
2023-08-25T23:34:46.899Z,94337.06
2023-08-25T23:37:13.411Z,94332.47
2023-08-25T23:39:39.869Z,94332.09
2023-08-25T23:42:06.342Z,94332.88
2023-08-25T23:44:32.957Z,94331.22
2023-08-25T23:46:59.411Z,94334.19
2023-08-25T23:49:25.858Z,94333.09
2023-08-25T23:51:52.305Z,94341.78
2023-08-25T23:54:18.747Z,94349.06
2023-08-25T23:56:45.216Z,94350.41
2023-08-25T23:59:11.665Z,94347.50
